createdAt,value
2019-02-06T00:01:34.608Z,99.90
2019-02-06T00:04:03.848Z,99.90
2019-02-06T00:06:33.506Z,99.90
2019-02-06T00:09:04.385Z,99.90
2019-02-06T00:11:35.380Z,99.90
2019-02-06T00:14:04.664Z,99.90
2019-02-06T00:16:33.947Z,99.90
2019-02-06T00:19:03.173Z,99.90
2019-02-06T00:21:32.420Z,99.90
2019-02-06T00:24:01.661Z,99.90
2019-02-06T00:26:30.920Z,99.90
2019-02-06T00:29:00.157Z,99.90
2019-02-06T00:31:29.703Z,99.90
2019-02-06T00:33:58.871Z,99.90
2019-02-06T00:36:28.112Z,99.90
2019-02-06T00:38:57.372Z,99.90
2019-02-06T00:41:26.612Z,99.90
2019-02-06T00:43:55.867Z,99.90
2019-02-06T00:46:25.116Z,99.90
2019-02-06T00:48:54.440Z,99.90
2019-02-06T00:51:23.676Z,99.90
2019-02-06T00:53:52.999Z,99.90
2019-02-06T00:56:22.165Z,99.90
2019-02-06T00:58:51.425Z,99.90
2019-02-06T01:01:21.138Z,99.90
2019-02-06T01:03:50.389Z,99.90
2019-02-06T01:06:19.624Z,99.90
2019-02-06T01:08:48.886Z,99.90
2019-02-06T01:11:18.261Z,99.90
2019-02-06T01:13:47.516Z,99.90
2019-02-06T01:16:16.760Z,99.90
2019-02-06T01:18:46.124Z,99.90
2019-02-06T01:21:15.371Z,99.90
2019-02-06T01:23:44.924Z,99.90
2019-02-06T01:26:14.084Z,99.90
2019-02-06T01:28:43.349Z,99.90
2019-02-06T01:31:13.956Z,99.90
2019-02-06T01:33:43.212Z,99.90
2019-02-06T01:36:12.456Z,99.90
2019-02-06T01:38:42.120Z,99.90
2019-02-06T01:41:11.354Z,99.90
2019-02-06T01:43:40.617Z,99.90
2019-02-06T01:46:09.851Z,99.90
2019-02-06T01:48:39.116Z,99.90
2019-02-06T01:51:08.347Z,99.90
2019-02-06T01:53:37.612Z,99.90
2019-02-06T01:56:06.852Z,99.90
2019-02-06T01:58:36.116Z,99.90
2019-02-06T02:01:05.426Z,99.90
2019-02-06T02:03:34.684Z,99.90
2019-02-06T02:06:04.992Z,99.90
2019-02-06T02:08:35.900Z,99.90
2019-02-06T02:11:05.135Z,99.90
2019-02-06T02:13:34.465Z,99.90
2019-02-06T02:16:03.699Z,99.90
2019-02-06T02:18:32.955Z,99.90
2019-02-06T02:21:02.188Z,99.90
2019-02-06T02:23:31.453Z,99.90
2019-02-06T02:26:00.789Z,99.90
2019-02-06T02:28:30.052Z,99.90
2019-02-06T02:30:59.457Z,99.90
2019-02-06T02:33:28.720Z,99.90
2019-02-06T02:35:57.912Z,99.90
2019-02-06T02:38:27.155Z,99.90
2019-02-06T02:40:57.228Z,99.90
2019-02-06T02:43:26.499Z,99.90
2019-02-06T02:45:55.734Z,99.90
2019-02-06T02:48:25.056Z,99.90
2019-02-06T02:50:54.294Z,99.90
2019-02-06T02:53:23.552Z,99.90
2019-02-06T02:55:52.917Z,99.90
2019-02-06T02:58:22.157Z,99.90
2019-02-06T03:01:11.225Z,99.90
2019-02-06T03:03:42.125Z,99.90
2019-02-06T03:06:11.662Z,99.90
2019-02-06T03:08:40.920Z,99.90
2019-02-06T03:11:11.132Z,99.90
2019-02-06T03:13:40.408Z,99.90
2019-02-06T03:16:09.648Z,99.90
2019-02-06T03:18:38.885Z,99.90
2019-02-06T03:21:08.345Z,99.90
2019-02-06T03:23:37.584Z,99.90
2019-02-06T03:26:06.840Z,99.90
2019-02-06T03:28:36.080Z,99.90
2019-02-06T03:31:05.355Z,99.90
2019-02-06T03:33:34.572Z,99.90
2019-02-06T03:36:04.143Z,99.90
2019-02-06T03:38:33.388Z,99.90
2019-02-06T03:41:02.651Z,99.90
2019-02-06T03:43:31.884Z,99.90
2019-02-06T03:46:01.149Z,99.90
2019-02-06T03:48:30.380Z,99.90
2019-02-06T03:50:59.640Z,99.90
2019-02-06T03:53:28.876Z,99.90
2019-02-06T03:55:58.136Z,99.90
2019-02-06T03:58:27.305Z,99.90
2019-02-06T04:00:56.569Z,99.90
2019-02-06T04:03:25.822Z,99.90
2019-02-06T04:05:55.078Z,99.90
2019-02-06T04:08:24.320Z,99.90
2019-02-06T04:10:53.589Z,99.90
2019-02-06T04:13:22.816Z,99.90
2019-02-06T04:15:52.076Z,99.90
2019-02-06T04:18:21.315Z,99.90
2019-02-06T04:20:50.581Z,99.90
2019-02-06T04:23:19.960Z,99.90
2019-02-06T04:25:49.173Z,99.90
2019-02-06T04:28:18.420Z,99.90
2019-02-06T04:30:47.672Z,99.90
2019-02-06T04:33:16.921Z,99.90
2019-02-06T04:35:46.184Z,99.90
2019-02-06T04:38:15.719Z,99.90
2019-02-06T04:40:44.979Z,99.90
2019-02-06T04:43:14.208Z,99.90
2019-02-06T04:45:43.573Z,99.90
2019-02-06T04:48:12.808Z,99.90
2019-02-06T04:50:42.069Z,99.90
2019-02-06T04:53:11.610Z,99.90
2019-02-06T04:55:40.869Z,99.90
2019-02-06T04:58:10.111Z,99.90
2019-02-06T05:00:39.377Z,99.90
2019-02-06T05:03:08.626Z,99.90
2019-02-06T05:05:37.869Z,99.90
2019-02-06T05:08:08.737Z,99.90
2019-02-06T05:10:38.015Z,99.90
2019-02-06T05:13:07.304Z,99.90
2019-02-06T05:15:36.484Z,99.90
2019-02-06T05:18:05.723Z,99.90
2019-02-06T05:20:37.016Z,99.90
2019-02-06T05:23:08.194Z,99.90
2019-02-06T05:25:37.431Z,99.90
2019-02-06T05:28:06.673Z,99.90
2019-02-06T05:30:35.909Z,99.90
2019-02-06T05:33:05.167Z,99.90
2019-02-06T05:35:34.408Z,99.90
2019-02-06T05:38:03.668Z,99.90
2019-02-06T05:40:32.909Z,99.90
2019-02-06T05:43:02.177Z,99.90
2019-02-06T05:45:31.412Z,99.90
2019-02-06T05:48:00.671Z,99.90
2019-02-06T05:50:29.918Z,99.90
2019-02-06T05:52:59.212Z,99.90
2019-02-06T05:55:28.812Z,99.90
2019-02-06T05:57:58.076Z,99.90
2019-02-06T06:00:29.057Z,99.90
2019-02-06T06:02:58.342Z,99.90
2019-02-06T06:05:27.554Z,99.90
2019-02-06T06:07:56.816Z,99.90
2019-02-06T06:10:26.558Z,99.90
2019-02-06T06:12:55.816Z,99.90
2019-02-06T06:15:24.988Z,99.90
2019-02-06T06:17:54.177Z,99.90
2019-02-06T06:20:23.417Z,99.90
2019-02-06T06:22:52.676Z,99.90
2019-02-06T06:25:22.381Z,99.90
2019-02-06T06:27:51.658Z,99.90
2019-02-06T06:30:21.159Z,99.90
2019-02-06T06:32:50.413Z,99.90
2019-02-06T06:35:19.692Z,99.90
2019-02-06T06:37:57.783Z,99.90
2019-02-06T06:40:21.666Z,99.90
2019-02-06T06:42:52.000Z,99.90
2019-02-06T06:45:23.473Z,99.90
2019-02-06T06:47:52.801Z,99.90
2019-02-06T06:50:23.778Z,99.90
2019-02-06T06:52:53.042Z,99.90
2019-02-06T06:55:22.580Z,99.90
2019-02-06T06:57:51.847Z,99.90
2019-02-06T07:00:26.939Z,99.90
2019-02-06T07:02:56.192Z,99.90
2019-02-06T07:05:25.550Z,99.90
2019-02-06T07:07:54.872Z,99.90
2019-02-06T07:10:24.514Z,99.90
2019-02-06T07:12:53.774Z,99.90
2019-02-06T07:15:29.391Z,99.90
2019-02-06T07:17:58.661Z,99.90
2019-02-06T07:20:27.896Z,99.90
2019-02-06T07:22:57.155Z,99.90
2019-02-06T07:25:26.408Z,99.90
2019-02-06T07:27:55.661Z,99.90
2019-02-06T07:30:29.536Z,99.90
2019-02-06T07:32:58.788Z,99.90
2019-02-06T07:35:28.092Z,99.90
2019-02-06T07:37:57.665Z,99.90
2019-02-06T07:40:26.895Z,99.90
2019-02-06T07:42:56.159Z,99.90
2019-02-06T07:45:25.396Z,99.90
2019-02-06T07:47:54.629Z,99.90
2019-02-06T07:50:34.184Z,99.90
2019-02-06T07:53:03.440Z,99.90
2019-02-06T07:55:32.677Z,99.90
2019-02-06T07:58:02.015Z,99.90
2019-02-06T08:00:32.216Z,99.90
2019-02-06T08:03:01.473Z,99.90
2019-02-06T08:05:30.811Z,99.90
2019-02-06T08:08:00.072Z,99.90
2019-02-06T08:10:34.507Z,99.90
2019-02-06T08:13:04.484Z,99.90
2019-02-06T08:15:33.752Z,99.90
2019-02-06T08:18:02.993Z,99.90
2019-02-06T08:20:32.326Z,99.90
2019-02-06T08:23:01.567Z,99.90
2019-02-06T08:25:30.837Z,99.90
2019-02-06T08:28:00.073Z,99.90
2019-02-06T08:30:38.069Z,99.90
2019-02-06T08:33:07.312Z,99.90
2019-02-06T08:35:36.568Z,99.90
2019-02-06T08:38:05.817Z,99.90
2019-02-06T08:40:35.052Z,99.90
2019-02-06T08:43:04.295Z,99.90
2019-02-06T08:45:33.545Z,99.90
2019-02-06T08:48:02.779Z,99.80
2019-02-06T08:50:32.252Z,99.80
2019-02-06T08:53:01.492Z,99.80
2019-02-06T08:55:32.445Z,99.60
2019-02-06T08:58:01.978Z,99.50
2019-02-06T09:00:36.068Z,99.40
2019-02-06T09:03:06.386Z,99.30
2019-02-06T09:05:35.637Z,98.90
2019-02-06T09:08:04.918Z,98.80
2019-02-06T09:10:34.169Z,98.90
2019-02-06T09:13:03.473Z,99.10
2019-02-06T09:15:32.739Z,98.80
2019-02-06T09:18:02.032Z,98.50
2019-02-06T09:20:31.249Z,98.70
2019-02-06T09:23:00.508Z,98.40
2019-02-06T09:25:29.912Z,98.50
2019-02-06T09:27:59.220Z,98.60
2019-02-06T09:30:31.686Z,98.50
2019-02-06T09:33:00.940Z,98.70
2019-02-06T09:35:30.109Z,98.60
2019-02-06T09:37:59.365Z,98.60
2019-02-06T09:40:30.320Z,98.20
2019-02-06T09:42:59.591Z,98.10
2019-02-06T09:45:28.820Z,98.20
2019-02-06T09:47:58.080Z,97.70
2019-02-06T09:50:32.688Z,97.00
2019-02-06T09:53:02.910Z,97.00
2019-02-06T09:55:33.116Z,97.10
2019-02-06T09:58:03.417Z,96.60
2019-02-06T10:00:35.912Z,96.70
2019-02-06T10:03:05.904Z,96.40
2019-02-06T10:05:35.149Z,96.40
2019-02-06T10:08:04.527Z,96.10
2019-02-06T10:10:33.693Z,96.10
2019-02-06T10:13:02.949Z,95.90
2019-02-06T10:15:34.224Z,95.20
2019-02-06T10:18:03.675Z,95.40
2019-02-06T10:20:38.961Z,95.00
2019-02-06T10:23:08.376Z,94.90
2019-02-06T10:25:37.614Z,95.10
2019-02-06T10:28:06.937Z,95.10
2019-02-06T10:30:38.965Z,95.20
2019-02-06T10:33:08.220Z,94.90
2019-02-06T10:35:37.447Z,94.60
2019-02-06T10:38:06.704Z,95.00
2019-02-06T10:40:35.940Z,95.00
2019-02-06T10:43:05.469Z,95.30
2019-02-06T10:45:34.693Z,94.50
2019-02-06T10:48:04.114Z,94.50
2019-02-06T10:50:35.889Z,94.50
2019-02-06T10:53:05.148Z,94.50
2019-02-06T10:55:34.381Z,94.20
2019-02-06T10:58:03.734Z,93.80
2019-02-06T11:00:37.209Z,93.60
2019-02-06T11:03:06.465Z,93.70
2019-02-06T11:05:35.706Z,93.40
2019-02-06T11:08:05.059Z,93.20
2019-02-06T11:10:34.351Z,93.00
2019-02-06T11:13:04.152Z,93.00
2019-02-06T11:15:33.711Z,92.90
2019-02-06T11:18:03.018Z,93.20
2019-02-06T11:20:34.825Z,93.10
2019-02-06T11:23:04.234Z,92.40
2019-02-06T11:25:33.491Z,92.00
2019-02-06T11:28:02.719Z,91.80
2019-02-06T11:30:34.877Z,91.90
2019-02-06T11:33:04.948Z,92.90
2019-02-06T11:35:34.200Z,92.90
2019-02-06T11:38:05.068Z,93.10
2019-02-06T11:40:34.249Z,93.20
2019-02-06T11:43:03.557Z,93.30
2019-02-06T11:45:33.953Z,92.90
2019-02-06T11:48:03.262Z,93.20
2019-02-06T11:50:34.153Z,93.10
2019-02-06T11:53:03.376Z,92.90
2019-02-06T11:55:32.647Z,92.90
2019-02-06T11:58:01.875Z,92.90
2019-02-06T12:00:44.745Z,92.60
2019-02-06T12:03:13.976Z,92.80
2019-02-06T12:05:43.233Z,92.70
2019-02-06T12:08:12.839Z,92.70
2019-02-06T12:10:42.226Z,91.90
2019-02-06T12:13:11.532Z,92.40
2019-02-06T12:15:40.784Z,92.20
2019-02-06T12:18:10.093Z,92.20
2019-02-06T12:20:39.359Z,92.10
2019-02-06T12:23:08.596Z,91.40
2019-02-06T12:25:37.854Z,91.40
2019-02-06T12:28:07.389Z,91.00
2019-02-06T12:30:41.102Z,91.20
2019-02-06T12:33:10.406Z,91.00
2019-02-06T12:35:39.662Z,91.40
2019-02-06T12:38:08.892Z,91.20
2019-02-06T12:40:39.127Z,92.00
2019-02-06T12:43:10.451Z,92.10
2019-02-06T12:45:39.600Z,91.80
2019-02-06T12:48:08.828Z,91.50
2019-02-06T12:50:38.088Z,92.40
2019-02-06T12:53:07.321Z,91.30
2019-02-06T12:55:38.808Z,91.70
2019-02-06T12:58:09.172Z,91.70
2019-02-06T13:00:43.132Z,91.60
2019-02-06T13:03:12.363Z,91.30
2019-02-06T13:05:41.633Z,91.10
2019-02-06T13:08:10.857Z,91.30
2019-02-06T13:10:40.117Z,90.90
2019-02-06T13:13:09.922Z,91.40
2019-02-06T13:15:39.190Z,91.20
2019-02-06T13:18:08.397Z,91.40
2019-02-06T13:20:37.654Z,91.30
2019-02-06T13:23:06.883Z,91.30
2019-02-06T13:25:36.067Z,91.40
2019-02-06T13:28:05.661Z,91.50
2019-02-06T13:30:36.720Z,91.30
2019-02-06T13:33:07.596Z,91.80
2019-02-06T13:35:37.496Z,91.20
2019-02-06T13:38:06.736Z,91.10
2019-02-06T13:40:45.094Z,91.20
2019-02-06T13:43:06.858Z,91.60
2019-02-06T13:45:41.795Z,91.50
2019-02-06T13:48:11.020Z,91.80
2019-02-06T13:50:40.289Z,91.90
2019-02-06T13:53:09.518Z,92.10
2019-02-06T13:55:38.756Z,91.60
2019-02-06T13:58:19.895Z,91.90
2019-02-06T14:00:41.536Z,92.20
2019-02-06T14:03:10.751Z,92.40
2019-02-06T14:05:40.257Z,92.10
2019-02-06T14:08:11.852Z,92.10
2019-02-06T14:10:41.092Z,92.20
2019-02-06T14:13:10.353Z,92.30
2019-02-06T14:15:41.720Z,92.20
2019-02-06T14:18:10.972Z,92.40
2019-02-06T14:20:40.646Z,93.00
2019-02-06T14:23:18.559Z,92.50
2019-02-06T14:25:56.445Z,92.60
2019-02-06T14:28:44.507Z,92.50
2019-02-06T14:31:17.261Z,92.70
2019-02-06T14:34:08.167Z,92.50
2019-02-06T14:36:55.700Z,92.70
2019-02-06T14:39:31.553Z,92.30
2019-02-06T14:42:12.791Z,93.10
2019-02-06T14:45:07.678Z,92.60
2019-02-06T14:47:42.820Z,92.50
2019-02-06T14:50:27.374Z,92.70
2019-02-06T14:53:05.805Z,92.20
2019-02-06T14:55:44.105Z,92.30
2019-02-06T14:58:34.452Z,92.20
2019-02-06T15:01:21.819Z,92.20
2019-02-06T15:04:16.159Z,92.10
2019-02-06T15:06:57.609Z,92.10
2019-02-06T15:10:01.925Z,92.50
2019-02-06T15:12:44.532Z,92.50
2019-02-06T15:15:42.871Z,92.90
2019-02-06T15:18:31.947Z,92.80
2019-02-06T15:21:09.780Z,93.00
2019-02-06T15:24:03.524Z,92.90
2019-02-06T15:26:47.589Z,92.90
2019-02-06T15:29:25.738Z,92.70
2019-02-06T15:32:24.045Z,92.90
2019-02-06T15:35:20.616Z,92.80
2019-02-06T15:38:11.164Z,92.60
2019-02-06T15:40:52.425Z,92.70
2019-02-06T15:43:36.787Z,92.80
2019-02-06T15:46:28.861Z,92.80
2019-02-06T15:49:18.833Z,93.00
2019-02-06T15:51:57.029Z,93.20
2019-02-06T15:54:47.469Z,93.10
2019-02-06T15:57:29.057Z,93.10
2019-02-06T16:00:10.269Z,93.30
2019-02-06T16:02:48.856Z,93.30
2019-02-06T16:05:31.811Z,93.40
2019-02-06T16:08:04.301Z,93.50
2019-02-06T16:10:57.820Z,93.50
2019-02-06T16:13:56.228Z,93.80
2019-02-06T16:16:46.379Z,94.00
2019-02-06T16:19:30.772Z,93.90
2019-02-06T16:22:22.604Z,93.90
2019-02-06T16:25:18.012Z,94.20
2019-02-06T16:28:17.221Z,94.10
2019-02-06T16:31:01.482Z,94.40
2019-02-06T16:33:39.681Z,94.70
2019-02-06T16:36:14.941Z,94.70
2019-02-06T16:39:02.328Z,94.80
2019-02-06T16:41:53.079Z,94.80
2019-02-06T16:44:36.178Z,94.90
2019-02-06T16:47:14.428Z,95.10
2019-02-06T16:49:52.874Z,94.80
2019-02-06T16:52:36.865Z,94.50
2019-02-06T16:55:28.965Z,94.50
2019-02-06T16:58:07.412Z,94.50
2019-02-06T17:00:45.622Z,94.70
2019-02-06T17:03:41.877Z,94.60
2019-02-06T17:06:26.387Z,94.40
2019-02-06T17:08:58.945Z,94.00
2019-02-06T17:11:46.254Z,94.00
2019-02-06T17:14:26.173Z,94.30
2019-02-06T17:17:01.571Z,94.50
2019-02-06T17:19:52.513Z,94.90
2019-02-06T17:22:44.588Z,95.00
2019-02-06T17:25:44.381Z,95.10
2019-02-06T17:28:28.737Z,95.10
2019-02-06T17:31:19.304Z,95.20
2019-02-06T17:34:04.275Z,94.90
2019-02-06T17:36:36.800Z,94.90
2019-02-06T17:39:26.011Z,95.00
2019-02-06T17:41:58.504Z,94.90
2019-02-06T17:44:30.992Z,95.00
2019-02-06T17:47:12.424Z,95.20
2019-02-06T17:49:47.853Z,95.30
2019-02-06T17:52:35.161Z,95.10
2019-02-06T17:55:18.165Z,95.30
2019-02-06T17:57:48.959Z,95.00
2019-02-06T18:00:37.746Z,95.30
2019-02-06T18:03:10.418Z,95.10
2019-02-06T18:05:41.059Z,95.00
2019-02-06T18:08:11.361Z,95.20
2019-02-06T18:10:40.625Z,95.20
2019-02-06T18:13:09.893Z,95.00
2019-02-06T18:15:39.128Z,95.30
2019-02-06T18:18:08.392Z,95.30
2019-02-06T18:20:37.624Z,95.30
2019-02-06T18:23:06.888Z,95.50
2019-02-06T18:25:36.124Z,95.60
2019-02-06T18:28:05.384Z,95.70
2019-02-06T18:30:34.625Z,95.90
2019-02-06T18:33:03.884Z,96.00
2019-02-06T18:35:34.190Z,96.20
2019-02-06T18:38:04.416Z,96.00
2019-02-06T18:40:34.628Z,96.50
2019-02-06T18:43:03.883Z,96.20
2019-02-06T18:45:33.121Z,96.30
2019-02-06T18:48:04.448Z,96.40
2019-02-06T18:50:38.088Z,96.50
2019-02-06T18:53:08.184Z,96.30
2019-02-06T18:55:37.832Z,96.30
2019-02-06T18:58:08.229Z,96.30
2019-02-06T19:00:42.190Z,96.40
2019-02-06T19:03:17.927Z,96.30
2019-02-06T19:05:47.247Z,96.30
2019-02-06T19:08:16.506Z,96.10
2019-02-06T19:10:45.744Z,96.30
2019-02-06T19:13:15.015Z,96.20
2019-02-06T19:15:44.252Z,96.40
2019-02-06T19:18:13.520Z,96.40
2019-02-06T19:20:42.824Z,96.40
2019-02-06T19:23:12.373Z,96.50
2019-02-06T19:25:41.666Z,96.40
2019-02-06T19:28:11.020Z,96.50
2019-02-06T19:30:42.506Z,96.70
2019-02-06T19:33:11.760Z,96.90
2019-02-06T19:35:41.459Z,96.80
2019-02-06T19:38:10.760Z,97.20
2019-02-06T19:40:40.350Z,97.40
2019-02-06T19:43:09.646Z,97.40
2019-02-06T19:45:39.192Z,97.70
2019-02-06T19:48:15.624Z,97.90
2019-02-06T19:50:43.307Z,97.80
2019-02-06T19:53:12.637Z,98.00
2019-02-06T19:55:41.963Z,97.70
2019-02-06T19:58:11.496Z,97.90
2019-02-06T20:00:40.744Z,97.80
2019-02-06T20:03:10.095Z,97.80
2019-02-06T20:05:39.337Z,97.80
2019-02-06T20:08:08.601Z,97.80
2019-02-06T20:10:43.732Z,97.70
2019-02-06T20:13:14.602Z,97.60
2019-02-06T20:15:44.106Z,97.60
2019-02-06T20:18:13.736Z,97.70
2019-02-06T20:20:42.983Z,97.70
2019-02-06T20:23:12.268Z,97.70
2019-02-06T20:25:41.504Z,97.80
2019-02-06T20:28:10.766Z,97.90
2019-02-06T20:30:40.013Z,97.60
2019-02-06T20:33:09.336Z,97.90
2019-02-06T20:35:38.980Z,97.50
2019-02-06T20:38:08.236Z,97.60
2019-02-06T20:40:40.377Z,97.50
2019-02-06T20:43:09.635Z,97.50
2019-02-06T20:45:38.881Z,97.50
2019-02-06T20:48:09.163Z,97.90
2019-02-06T20:50:38.695Z,97.50
2019-02-06T20:53:07.972Z,97.50
2019-02-06T20:55:37.216Z,97.70
2019-02-06T20:58:07.426Z,97.70
2019-02-06T21:00:41.168Z,97.60
2019-02-06T21:03:10.482Z,97.60
2019-02-06T21:05:39.741Z,97.50
2019-02-06T21:08:09.049Z,97.50
2019-02-06T21:10:38.325Z,97.70
2019-02-06T21:13:08.551Z,97.60
2019-02-06T21:15:37.805Z,97.80
2019-02-06T21:18:07.046Z,97.60
2019-02-06T21:20:37.276Z,97.80
2019-02-06T21:23:06.513Z,97.70
2019-02-06T21:25:35.774Z,97.60
2019-02-06T21:28:05.004Z,97.60
2019-02-06T21:30:40.102Z,97.60
2019-02-06T21:33:09.341Z,97.40
2019-02-06T21:35:38.896Z,97.60
2019-02-06T21:38:08.176Z,97.60
2019-02-06T21:40:37.812Z,97.60
2019-02-06T21:43:07.419Z,97.80
2019-02-06T21:45:36.712Z,97.60
2019-02-06T21:48:06.330Z,97.90
2019-02-06T21:50:36.068Z,98.00
2019-02-06T21:53:05.300Z,97.80
2019-02-06T21:55:34.560Z,97.60
2019-02-06T21:58:03.795Z,97.40
2019-02-06T22:00:36.311Z,97.40
2019-02-06T22:03:05.551Z,97.60
2019-02-06T22:05:35.221Z,97.70
2019-02-06T22:08:04.532Z,97.80
2019-02-06T22:10:33.787Z,97.70
2019-02-06T22:13:03.033Z,98.00
2019-02-06T22:15:32.730Z,97.90
2019-02-06T22:18:01.966Z,97.90
2019-02-06T22:20:31.424Z,97.90
2019-02-06T22:23:00.661Z,97.90
2019-02-06T22:25:29.921Z,98.20
2019-02-06T22:28:00.136Z,98.30
2019-02-06T22:30:30.225Z,98.30
2019-02-06T22:32:59.465Z,98.30
2019-02-06T22:35:28.719Z,98.50
2019-02-06T22:37:57.964Z,98.40
2019-02-06T22:40:27.238Z,98.40
2019-02-06T22:42:56.577Z,98.60
2019-02-06T22:45:27.386Z,98.70
2019-02-06T22:47:56.637Z,98.60
2019-02-06T22:50:27.634Z,98.70
2019-02-06T22:52:56.968Z,98.40
2019-02-06T22:55:26.228Z,98.20
2019-02-06T22:57:55.456Z,98.30
2019-02-06T23:00:47.617Z,98.30
2019-02-06T23:03:24.626Z,98.40
2019-02-06T23:05:53.891Z,98.30
2019-02-06T23:08:23.124Z,98.40
2019-02-06T23:10:52.392Z,98.00
2019-02-06T23:13:21.993Z,98.10
2019-02-06T23:15:52.219Z,98.30
2019-02-06T23:18:22.527Z,98.00
2019-02-06T23:20:51.792Z,98.10
2019-02-06T23:23:20.953Z,98.10
2019-02-06T23:25:50.217Z,98.20
2019-02-06T23:28:19.382Z,98.10
2019-02-06T23:30:48.643Z,98.30
2019-02-06T23:33:17.876Z,98.30
2019-02-06T23:35:47.136Z,98.10
2019-02-06T23:38:16.377Z,98.10
2019-02-06T23:40:46.036Z,98.40
2019-02-06T23:43:15.285Z,98.20
2019-02-06T23:45:44.622Z,98.20
2019-02-06T23:48:13.864Z,98.20
2019-02-06T23:50:43.129Z,98.20
2019-02-06T23:53:12.368Z,98.00
2019-02-06T23:55:42.140Z,98.30
2019-02-06T23:58:11.385Z,98.40
